Time,TemperatureF,DewpointF,PressureIn,WindDirection,WindDirectionDegrees,WindSpeedMPH,WindSpeedGustMPH,Humidity,HourlyPrecipIn,Conditions,Clouds,dailyrainin,SoftwareType,DateUTC
2013-06-17 00:02:00,65.0,60.0,29.78,WNW,295,0.0,0.0,84,0.00,,,0.00,,2013-06-17 04:02:00,
2013-06-17 00:12:00,64.0,59.0,29.79,WNW,295,0.0,0.0,85,0.00,,,0.00,,2013-06-17 04:12:00,
2013-06-17 00:22:00,64.0,60.0,29.79,WNW,295,0.0,1.0,86,0.00,,,0.00,,2013-06-17 04:22:00,
2013-06-17 00:34:00,64.0,60.0,29.79,WNW,294,0.0,1.0,86,0.00,,,0.00,,2013-06-17 04:34:00,
2013-06-17 00:43:00,64.0,60.0,29.79,WNW,294,0.0,1.0,86,0.00,,,0.00,,2013-06-17 04:43:00,
2013-06-17 00:53:00,63.0,59.0,29.79,WNW,294,0.0,0.0,87,0.00,,,0.00,,2013-06-17 04:53:00,
2013-06-17 01:02:00,62.0,58.0,29.80,WNW,294,0.0,0.0,88,0.00,,,0.00,,2013-06-17 05:02:00,
2013-06-17 01:12:00,61.0,58.0,29.80,WNW,293,0.0,0.0,89,0.00,,,0.00,,2013-06-17 05:12:00,
2013-06-17 01:22:00,61.0,58.0,29.80,WNW,294,0.0,0.0,91,0.00,,,0.00,,2013-06-17 05:22:00,
2013-06-17 01:33:00,60.0,57.0,29.80,WNW,294,0.0,0.0,91,0.00,,,0.00,,2013-06-17 05:33:00,
2013-06-17 01:44:00,59.0,57.0,29.81,WNW,294,0.0,1.0,93,0.00,,,0.00,,2013-06-17 05:44:00,
2013-06-17 01:53:00,59.0,57.0,29.81,WNW,294,0.0,0.0,94,0.00,,,0.00,,2013-06-17 05:53:00,
2013-06-17 02:02:00,59.0,57.0,29.81,WNW,294,0.0,0.0,94,0.00,,,0.00,,2013-06-17 06:02:00,
2013-06-17 02:12:00,59.0,57.0,29.81,WNW,294,0.0,0.0,94,0.00,,,0.00,,2013-06-17 06:12:00,
2013-06-17 02:22:00,58.0,56.0,29.81,WNW,294,0.0,0.0,94,0.00,,,0.00,,2013-06-17 06:22:00,
2013-06-17 02:33:00,58.0,57.0,29.82,WNW,294,0.0,0.0,95,0.00,,,0.00,,2013-06-17 06:33:00,
2013-06-17 02:43:00,58.0,57.0,29.82,WNW,294,0.0,0.0,95,0.00,,,0.00,,2013-06-17 06:43:00,
2013-06-17 02:53:00,58.0,57.0,29.82,WNW,294,0.0,0.0,95,0.00,,,0.00,,2013-06-17 06:53:00,
2013-06-17 03:02:00,58.0,57.0,29.82,WNW,294,0.0,0.0,96,0.00,,,0.00,,2013-06-17 07:02:00,
2013-06-17 03:12:00,58.0,57.0,29.82,WNW,294,0.0,0.0,96,0.00,,,0.00,,2013-06-17 07:12:00,
2013-06-17 03:22:00,57.0,56.0,29.82,WNW,294,0.0,0.0,96,0.00,,,0.00,,2013-06-17 07:22:00,
2013-06-17 03:33:00,57.0,56.0,29.82,WNW,294,0.0,0.0,96,0.00,,,0.00,,2013-06-17 07:33:00,
2013-06-17 03:43:00,57.0,56.0,29.82,WNW,293,0.0,0.0,96,0.00,,,0.00,,2013-06-17 07:43:00,
2013-06-17 03:53:00,56.0,55.0,29.82,WNW,293,0.0,0.0,96,0.00,,,0.00,,2013-06-17 07:53:00,
2013-06-17 04:02:00,56.0,55.0,29.82,WNW,294,0.0,0.0,96,0.00,,,0.00,,2013-06-17 08:02:00,
2013-06-17 04:12:00,55.0,54.0,29.82,WNW,294,0.0,0.0,96,0.00,,,0.00,,2013-06-17 08:12:00,
2013-06-17 04:22:00,55.0,54.0,29.83,WNW,294,0.0,0.0,97,0.00,,,0.00,,2013-06-17 08:22:00,
2013-06-17 04:34:00,55.0,54.0,29.83,WNW,294,0.0,0.0,97,0.00,,,0.00,,2013-06-17 08:34:00,
2013-06-17 04:43:00,55.0,54.0,29.83,WNW,294,0.0,0.0,97,0.00,,,0.00,,2013-06-17 08:43:00,
2013-06-17 04:53:00,55.0,54.0,29.83,WNW,294,0.0,0.0,97,0.00,,,0.00,,2013-06-17 08:53:00,
2013-06-17 05:02:00,55.0,54.0,29.83,WNW,294,0.0,0.0,97,0.00,,,0.00,,2013-06-17 09:02:00,
2013-06-17 05:12:00,55.0,54.0,29.84,WNW,294,0.0,0.0,98,0.00,,,0.00,,2013-06-17 09:12:00,
2013-06-17 05:22:00,55.0,54.0,29.84,WNW,294,0.0,0.0,98,0.00,,,0.00,,2013-06-17 09:22:00,
2013-06-17 05:34:00,55.0,54.0,29.84,WNW,294,0.0,0.0,98,0.00,,,0.00,,2013-06-17 09:34:00,
2013-06-17 05:44:00,55.0,54.0,29.84,WNW,294,0.0,0.0,97,0.00,,,0.00,,2013-06-17 09:44:00,
2013-06-17 05:52:00,55.0,54.0,29.84,WNW,294,0.0,1.0,97,0.00,,,0.00,,2013-06-17 09:52:00,
2013-06-17 06:02:00,55.0,54.0,29.85,WNW,294,0.0,1.0,97,0.00,,,0.00,,2013-06-17 10:02:00,
2013-06-17 06:12:00,54.0,53.0,29.85,WNW,294,0.0,0.0,97,0.00,,,0.00,,2013-06-17 10:12:00,
2013-06-17 06:22:00,54.0,53.0,29.85,WNW,294,0.0,0.0,98,0.00,,,0.00,,2013-06-17 10:22:00,
2013-06-17 06:33:00,55.0,54.0,29.85,WNW,294,0.0,0.0,98,0.00,,,0.00,,2013-06-17 10:33:00,
2013-06-17 06:43:00,55.0,54.0,29.85,WNW,294,0.0,0.0,98,0.00,,,0.00,,2013-06-17 10:43:00,
2013-06-17 06:53:00,55.0,54.0,29.85,WNW,295,0.0,0.0,98,0.00,,,0.00,,2013-06-17 10:53:00,
2013-06-17 07:02:00,56.0,56.0,29.85,WNW,294,0.0,0.0,99,0.00,,,0.00,,2013-06-17 11:02:00,
2013-06-17 07:12:00,58.0,58.0,29.85,WNW,294,0.0,0.0,99,0.00,,,0.00,,2013-06-17 11:12:00,
2013-06-17 07:23:00,58.0,58.0,29.85,WNW,294,0.0,0.0,99,0.00,,,0.00,,2013-06-17 11:23:00,
2013-06-17 07:33:00,59.0,59.0,29.86,WNW,294,0.0,0.0,99,0.00,,,0.00,,2013-06-17 11:33:00,
2013-06-17 07:43:00,60.0,60.0,29.86,WNW,301,0.0,1.0,100,0.00,,,0.00,,2013-06-17 11:43:00,
2013-06-17 07:53:00,60.0,60.0,29.87,NW,309,0.0,1.0,100,0.00,,,0.00,,2013-06-17 11:53:00,
2013-06-17 08:02:00,62.0,62.0,29.87,WNW,301,1.0,4.0,100,0.00,,,0.00,,2013-06-17 12:02:00,
2013-06-17 08:12:00,63.0,62.0,29.87,NW,310,0.0,1.0,98,0.00,,,0.00,,2013-06-17 12:12:00,
2013-06-17 08:23:00,64.0,62.0,29.87,WNW,295,1.0,4.0,92,0.00,,,0.00,,2013-06-17 12:23:00,
2013-06-17 08:33:00,66.0,63.0,29.87,WNW,295,0.0,2.0,89,0.00,,,0.00,,2013-06-17 12:33:00,
2013-06-17 08:43:00,67.0,63.0,29.87,NW,311,1.0,5.0,87,0.00,,,0.00,,2013-06-17 12:43:00,
2013-06-17 08:53:00,68.0,64.0,29.87,NW,309,0.0,3.0,86,0.00,,,0.00,,2013-06-17 12:53:00,
2013-06-17 09:02:00,68.0,63.0,29.86,West,277,0.0,1.0,85,0.00,,,0.00,,2013-06-17 13:02:00,
2013-06-17 09:12:00,69.0,64.0,29.87,NW,314,2.0,6.0,83,0.00,,,0.00,,2013-06-17 13:12:00,
2013-06-17 09:22:00,71.0,64.0,29.86,WNW,300,1.0,6.0,79,0.00,,,0.00,,2013-06-17 13:22:00,
2013-06-17 09:32:00,72.0,63.0,29.86,NW,304,3.0,11.0,74,0.00,,,0.00,,2013-06-17 13:32:00,
2013-06-17 09:43:00,73.0,63.0,29.86,WNW,300,2.0,7.0,72,0.00,,,0.00,,2013-06-17 13:43:00,
2013-06-17 09:52:00,75.0,64.0,29.86,ESE,106,1.0,4.0,68,0.00,,,0.00,,2013-06-17 13:52:00,
2013-06-17 10:02:00,76.0,63.0,29.85,ESE,105,2.0,5.0,65,0.00,,,0.00,,2013-06-17 14:02:00,
2013-06-17 10:12:00,77.0,63.0,29.85,NNE,20,1.0,4.0,63,0.00,,,0.00,,2013-06-17 14:12:00,
2013-06-17 10:22:00,78.0,66.0,29.85,East,89,1.0,5.0,66,0.00,,,0.00,,2013-06-17 14:22:00,
2013-06-17 10:34:00,78.0,65.0,29.85,West,276,0.0,6.0,64,0.00,,,0.00,,2013-06-17 14:34:00,
2013-06-17 10:43:00,79.0,62.0,29.85,WNW,300,1.0,6.0,57,0.00,,,0.00,,2013-06-17 14:43:00,
2013-06-17 10:53:00,79.0,63.0,29.85,ESE,115,2.0,8.0,58,0.00,,,0.00,,2013-06-17 14:53:00,
2013-06-17 11:02:00,79.0,62.0,29.85,West,278,3.0,9.0,57,0.00,,,0.00,,2013-06-17 15:02:00,
2013-06-17 11:12:00,79.0,64.0,29.85,West,279,1.0,10.0,60,0.00,,,0.00,,2013-06-17 15:12:00,
2013-06-17 11:22:00,79.0,64.0,29.85,West,279,1.0,10.0,60,0.00,,,0.00,,2013-06-17 15:22:00,
2013-06-17 11:33:00,81.0,62.0,29.84,ESE,103,1.0,4.0,52,0.00,,,0.00,,2013-06-17 15:33:00,
2013-06-17 11:43:00,81.0,62.0,29.84,West,278,2.0,8.0,53,0.00,,,0.00,,2013-06-17 15:43:00,
2013-06-17 12:02:00,83.0,64.0,29.83,NW,314,2.0,9.0,53,0.00,,,0.00,,2013-06-17 16:02:00,
2013-06-17 12:12:00,82.0,61.0,29.83,NW,322,1.0,10.0,50,0.00,,,0.00,,2013-06-17 16:12:00,
2013-06-17 12:22:00,83.0,64.0,29.83,WNW,288,2.0,8.0,52,0.00,,,0.00,,2013-06-17 16:22:00,
2013-06-17 12:33:00,83.0,63.0,29.83,WNW,293,0.0,6.0,51,0.00,,,0.00,,2013-06-17 16:33:00,
2013-06-17 12:43:00,84.0,66.0,29.83,West,267,1.0,4.0,55,0.00,,,0.00,,2013-06-17 16:43:00,
2013-06-17 12:53:00,84.0,63.0,29.83,WNW,285,1.0,5.0,50,0.00,,,0.00,,2013-06-17 16:53:00,
2013-06-17 13:02:00,83.0,64.0,29.83,East,79,1.0,6.0,52,0.00,,,0.00,,2013-06-17 17:02:00,
2013-06-17 13:12:00,84.0,66.0,29.83,West,280,1.0,5.0,55,0.00,,,0.00,,2013-06-17 17:12:00,
2013-06-17 13:22:00,86.0,63.0,29.83,East,81,1.0,4.0,46,0.00,,,0.00,,2013-06-17 17:22:00,
2013-06-17 13:33:00,86.0,63.0,29.83,East,81,1.0,4.0,46,0.00,,,0.00,,2013-06-17 17:33:00,
2013-06-17 13:43:00,85.0,61.0,29.83,ESE,104,1.0,6.0,45,0.00,,,0.00,,2013-06-17 17:43:00,
2013-06-17 13:52:00,85.0,62.0,29.82,NNW,338,1.0,6.0,46,0.00,,,0.00,,2013-06-17 17:52:00,
2013-06-17 14:02:00,86.0,62.0,29.82,West,264,1.0,6.0,44,0.00,,,0.00,,2013-06-17 18:02:00,
2013-06-17 14:12:00,87.0,62.0,29.81,NW,321,1.0,4.0,44,0.00,,,0.00,,2013-06-17 18:12:00,
2013-06-17 14:33:00,87.0,64.0,29.80,NW,315,1.0,3.0,47,0.00,,,0.00,,2013-06-17 18:33:00,
2013-06-17 14:43:00,87.0,63.0,29.81,North,357,1.0,4.0,45,0.00,,,0.00,,2013-06-17 18:43:00,
2013-06-17 14:53:00,86.0,60.0,29.80,NW,319,4.0,10.0,42,0.00,,,0.00,,2013-06-17 18:53:00,
2013-06-17 15:02:00,87.0,64.0,29.81,West,274,0.0,4.0,46,0.00,,,0.00,,2013-06-17 19:02:00,
2013-06-17 15:12:00,87.0,62.0,29.80,NNW,334,1.0,7.0,43,0.00,,,0.00,,2013-06-17 19:12:00,
2013-06-17 15:22:00,85.0,62.0,29.81,North,349,1.0,3.0,46,0.00,,,0.00,,2013-06-17 19:22:00,
2013-06-17 15:33:00,83.0,62.0,29.81,North,8,0.0,1.0,50,0.00,,,0.00,,2013-06-17 19:33:00,
2013-06-17 15:43:00,81.0,62.0,29.81,WNW,286,2.0,9.0,53,0.00,,,0.00,,2013-06-17 19:43:00,
2013-06-17 15:53:00,80.0,62.0,29.81,WNW,296,1.0,5.0,54,0.00,,,0.00,,2013-06-17 19:53:00,
2013-06-17 16:02:00,79.0,63.0,29.81,North,349,0.0,3.0,58,0.00,,,0.00,,2013-06-17 20:02:00,
2013-06-17 16:11:00,81.0,62.0,29.80,NE,34,1.0,3.0,53,0.00,,,0.00,,2013-06-17 20:11:00,
2013-06-17 16:22:00,82.0,63.0,29.82,NNW,328,1.0,4.0,53,0.00,,,0.00,,2013-06-17 20:22:00,
2013-06-17 16:34:00,81.0,62.0,29.83,NW,308,1.0,7.0,52,0.00,,,0.00,,2013-06-17 20:34:00,
2013-06-17 16:43:00,77.0,57.0,29.85,SW,226,0.0,6.0,51,0.00,,,0.00,,2013-06-17 20:43:00,
2013-06-17 16:52:00,74.0,58.0,29.84,NNW,338,1.0,3.0,57,0.00,,,0.00,,2013-06-17 20:52:00,
2013-06-17 17:02:00,72.0,57.0,29.84,NNW,342,1.0,4.0,60,0.00,,,0.00,,2013-06-17 21:02:00,
2013-06-17 17:12:00,71.0,58.0,29.85,NNW,342,1.0,3.0,63,0.00,,,0.00,,2013-06-17 21:12:00,
2013-06-17 17:22:00,70.0,58.0,29.85,NNW,338,0.0,3.0,65,0.00,,,0.00,,2013-06-17 21:22:00,
2013-06-17 17:33:00,69.0,60.0,29.85,NNW,331,0.0,4.0,73,0.00,,,0.00,,2013-06-17 21:33:00,
2013-06-17 17:43:00,67.0,61.0,29.85,NW,323,0.0,2.0,81,0.01,,,0.01,,2013-06-17 21:43:00,
2013-06-17 17:52:00,67.0,61.0,29.85,NW,323,0.0,2.0,81,0.01,,,0.01,,2013-06-17 21:52:00,
2013-06-17 18:01:00,65.0,61.0,29.86,WNW,294,0.0,2.0,86,0.04,,,0.04,,2013-06-17 22:01:00,
2013-06-17 18:11:00,64.0,61.0,29.86,WNW,294,0.0,1.0,89,0.06,,,0.06,,2013-06-17 22:11:00,
2013-06-17 18:22:00,64.0,61.0,29.85,WNW,294,0.0,0.0,91,0.08,,,0.08,,2013-06-17 22:22:00,
2013-06-17 18:34:00,63.0,61.0,29.85,WNW,292,0.0,0.0,92,0.07,,,0.08,,2013-06-17 22:34:00,
2013-06-17 18:43:00,64.0,62.0,29.84,WNW,293,0.0,1.0,94,0.07,,,0.08,,2013-06-17 22:43:00,
2013-06-17 18:53:00,64.0,62.0,29.84,WNW,292,0.0,1.0,94,0.06,,,0.08,,2013-06-17 22:53:00,
2013-06-17 19:02:00,65.0,63.0,29.84,WNW,292,0.0,0.0,94,0.04,,,0.08,,2013-06-17 23:02:00,
2013-06-17 19:11:00,66.0,64.0,29.85,WNW,293,0.0,1.0,93,0.02,,,0.08,,2013-06-17 23:11:00,
2013-06-17 19:22:00,65.0,63.0,29.85,WNW,292,0.0,0.0,92,0.00,,,0.08,,2013-06-17 23:22:00,
2013-06-17 19:33:00,65.0,63.0,29.85,WNW,292,0.0,0.0,92,0.00,,,0.08,,2013-06-17 23:33:00,
2013-06-17 19:43:00,65.0,63.0,29.87,WNW,293,0.0,0.0,93,0.00,,,0.08,,2013-06-17 23:43:00,
2013-06-17 19:53:00,66.0,64.0,29.88,WNW,293,0.0,1.0,92,0.00,,,0.08,,2013-06-17 23:53:00,
2013-06-17 20:01:00,66.0,63.0,29.89,WNW,293,0.0,1.0,91,0.00,,,0.08,,2013-06-18 00:01:00,
2013-06-17 20:12:00,66.0,63.0,29.89,WNW,293,0.0,1.0,91,0.00,,,0.08,,2013-06-18 00:12:00,
2013-06-17 20:22:00,65.0,62.0,29.89,WNW,292,0.0,1.0,91,0.00,,,0.08,,2013-06-18 00:22:00,
2013-06-17 20:33:00,65.0,63.0,29.89,WNW,293,0.0,0.0,92,0.00,,,0.08,,2013-06-18 00:33:00,
2013-06-17 20:43:00,64.0,62.0,29.89,WNW,292,0.0,1.0,93,0.00,,,0.08,,2013-06-18 00:43:00,
2013-06-17 20:52:00,63.0,61.0,29.89,WNW,292,0.0,0.0,93,0.00,,,0.08,,2013-06-18 00:52:00,
2013-06-17 21:01:00,63.0,61.0,29.90,WNW,293,0.0,0.0,94,0.00,,,0.08,,2013-06-18 01:01:00,
2013-06-17 21:12:00,62.0,60.0,29.90,WNW,292,0.0,0.0,94,0.00,,,0.08,,2013-06-18 01:12:00,
2013-06-17 21:23:00,62.0,61.0,29.90,WNW,292,0.0,1.0,95,0.00,,,0.08,,2013-06-18 01:23:00,
2013-06-17 21:34:00,62.0,61.0,29.91,WNW,293,0.0,0.0,95,0.00,,,0.08,,2013-06-18 01:34:00,
2013-06-17 21:44:00,61.0,60.0,29.92,WNW,293,0.0,0.0,95,0.00,,,0.08,,2013-06-18 01:44:00,
2013-06-17 21:53:00,61.0,60.0,29.92,WNW,293,0.0,0.0,96,0.00,,,0.08,,2013-06-18 01:53:00,
2013-06-17 22:02:00,60.0,59.0,29.92,WNW,292,0.0,0.0,96,0.00,,,0.08,,2013-06-18 02:02:00,
2013-06-17 22:12:00,61.0,60.0,29.92,WNW,292,0.0,0.0,97,0.00,,,0.08,,2013-06-18 02:12:00,
2013-06-17 22:22:00,60.0,59.0,29.92,WNW,292,0.0,1.0,97,0.00,,,0.08,,2013-06-18 02:22:00,
2013-06-17 22:34:00,60.0,59.0,29.92,WNW,292,0.0,1.0,97,0.00,,,0.08,,2013-06-18 02:34:00,
2013-06-17 22:43:00,61.0,60.0,29.91,WNW,292,0.0,0.0,97,0.00,,,0.08,,2013-06-18 02:43:00,
2013-06-17 22:53:00,60.0,59.0,29.91,WNW,293,0.0,0.0,97,0.00,,,0.08,,2013-06-18 02:53:00,
2013-06-17 23:02:00,60.0,59.0,29.91,WNW,292,0.0,0.0,97,0.00,,,0.08,,2013-06-18 03:02:00,
2013-06-17 23:12:00,60.0,59.0,29.91,WNW,293,0.0,0.0,98,0.00,,,0.08,,2013-06-18 03:12:00,
2013-06-17 23:23:00,59.0,58.0,29.91,WNW,293,0.0,0.0,97,0.00,,,0.08,,2013-06-18 03:23:00,
2013-06-17 23:34:00,59.0,58.0,29.91,WNW,292,0.0,0.0,97,0.00,,,0.08,,2013-06-18 03:34:00,
2013-06-17 23:43:00,59.0,58.0,29.91,WNW,292,0.0,0.0,97,0.00,,,0.08,,2013-06-18 03:43:00,
2013-06-17 23:53:00,59.0,58.0,29.91,WNW,293,0.0,0.0,98,0.00,,,0.08,,2013-06-18 03:53:00,